sensor_id;sensor_type;location;lat;lon;timestamp;temperature;humidity
5556;DHT22;2801;50.972;7.856;2023-04-25T00:02:24;2.90;99.90
5556;DHT22;2801;50.972;7.856;2023-04-25T00:04:52;2.90;99.90
5556;DHT22;2801;50.972;7.856;2023-04-25T00:07:19;2.90;99.90
5556;DHT22;2801;50.972;7.856;2023-04-25T00:09:46;3.00;99.90
5556;DHT22;2801;50.972;7.856;2023-04-25T00:12:13;3.00;99.90
5556;DHT22;2801;50.972;7.856;2023-04-25T00:14:41;3.10;99.90
5556;DHT22;2801;50.972;7.856;2023-04-25T00:17:08;2.90;99.90
5556;DHT22;2801;50.972;7.856;2023-04-25T00:19:35;2.80;99.90
5556;DHT22;2801;50.972;7.856;2023-04-25T00:22:04;2.70;99.90
5556;DHT22;2801;50.972;7.856;2023-04-25T00:24:32;2.70;99.90
5556;DHT22;2801;50.972;7.856;2023-04-25T00:26:58;2.70;99.90
5556;DHT22;2801;50.972;7.856;2023-04-25T00:29:25;2.70;99.90
5556;DHT22;2801;50.972;7.856;2023-04-25T00:31:52;2.60;99.90
5556;DHT22;2801;50.972;7.856;2023-04-25T00:34:19;2.60;99.90
5556;DHT22;2801;50.972;7.856;2023-04-25T00:36:47;2.50;99.90
5556;DHT22;2801;50.972;7.856;2023-04-25T00:39:14;2.50;99.90
5556;DHT22;2801;50.972;7.856;2023-04-25T00:41:41;2.50;99.90
5556;DHT22;2801;50.972;7.856;2023-04-25T00:44:09;2.40;99.90
5556;DHT22;2801;50.972;7.856;2023-04-25T00:46:39;2.40;99.90
5556;DHT22;2801;50.972;7.856;2023-04-25T00:49:06;2.40;99.90
5556;DHT22;2801;50.972;7.856;2023-04-25T00:51:33;2.30;99.90
5556;DHT22;2801;50.972;7.856;2023-04-25T00:54:01;2.30;99.90
5556;DHT22;2801;50.972;7.856;2023-04-25T00:56:28;2.20;99.90
5556;DHT22;2801;50.972;7.856;2023-04-25T00:58:56;2.10;99.90
5556;DHT22;2801;50.972;7.856;2023-04-25T01:01:23;2.10;99.90
5556;DHT22;2801;50.972;7.856;2023-04-25T01:03:52;2.00;99.90
5556;DHT22;2801;50.972;7.856;2023-04-25T01:06:21;2.00;99.90
5556;DHT22;2801;50.972;7.856;2023-04-25T01:08:49;2.00;99.90
5556;DHT22;2801;50.972;7.856;2023-04-25T01:11:17;2.00;99.90
5556;DHT22;2801;50.972;7.856;2023-04-25T01:13:44;2.00;99.90
5556;DHT22;2801;50.972;7.856;2023-04-25T01:16:11;2.00;99.90
5556;DHT22;2801;50.972;7.856;2023-04-25T01:18:39;2.00;99.90
5556;DHT22;2801;50.972;7.856;2023-04-25T01:21:12;2.10;99.90
5556;DHT22;2801;50.972;7.856;2023-04-25T01:23:42;1.90;99.90
5556;DHT22;2801;50.972;7.856;2023-04-25T01:26:11;1.80;99.90
5556;DHT22;2801;50.972;7.856;2023-04-25T01:28:39;1.80;99.90
5556;DHT22;2801;50.972;7.856;2023-04-25T01:31:10;1.80;99.90
5556;DHT22;2801;50.972;7.856;2023-04-25T01:33:38;1.80;99.90
5556;DHT22;2801;50.972;7.856;2023-04-25T01:36:05;1.80;99.90
5556;DHT22;2801;50.972;7.856;2023-04-25T01:38:33;1.80;99.90
5556;DHT22;2801;50.972;7.856;2023-04-25T01:41:00;1.80;99.90
5556;DHT22;2801;50.972;7.856;2023-04-25T01:43:27;1.80;99.90
5556;DHT22;2801;50.972;7.856;2023-04-25T01:45:54;1.90;99.90
5556;DHT22;2801;50.972;7.856;2023-04-25T01:48:22;2.00;99.90
5556;DHT22;2801;50.972;7.856;2023-04-25T01:50:49;2.10;99.90
5556;DHT22;2801;50.972;7.856;2023-04-25T01:53:16;2.30;99.90
5556;DHT22;2801;50.972;7.856;2023-04-25T01:55:43;2.50;99.90
5556;DHT22;2801;50.972;7.856;2023-04-25T01:58:10;2.60;99.90
5556;DHT22;2801;50.972;7.856;2023-04-25T02:00:39;2.80;99.90
5556;DHT22;2801;50.972;7.856;2023-04-25T02:03:08;2.80;99.90
5556;DHT22;2801;50.972;7.856;2023-04-25T02:05:39;2.90;99.90
5556;DHT22;2801;50.972;7.856;2023-04-25T02:08:08;3.00;99.90
5556;DHT22;2801;50.972;7.856;2023-04-25T02:10:36;3.10;99.90
5556;DHT22;2801;50.972;7.856;2023-04-25T02:13:03;3.20;99.90
5556;DHT22;2801;50.972;7.856;2023-04-25T02:15:31;3.30;99.90
5556;DHT22;2801;50.972;7.856;2023-04-25T02:17:59;3.30;99.90
5556;DHT22;2801;50.972;7.856;2023-04-25T02:20:28;3.40;99.90
5556;DHT22;2801;50.972;7.856;2023-04-25T02:22:56;3.50;99.90
5556;DHT22;2801;50.972;7.856;2023-04-25T02:25:23;3.50;99.90
5556;DHT22;2801;50.972;7.856;2023-04-25T02:27:50;3.60;99.90
5556;DHT22;2801;50.972;7.856;2023-04-25T02:30:18;3.70;99.90
5556;DHT22;2801;50.972;7.856;2023-04-25T02:32:45;3.70;99.90
5556;DHT22;2801;50.972;7.856;2023-04-25T02:35:12;3.90;99.90
5556;DHT22;2801;50.972;7.856;2023-04-25T02:37:40;3.80;99.90
5556;DHT22;2801;50.972;7.856;2023-04-25T02:40:07;3.90;99.90
5556;DHT22;2801;50.972;7.856;2023-04-25T02:42:35;3.90;99.90
5556;DHT22;2801;50.972;7.856;2023-04-25T02:45:02;4.00;99.90
5556;DHT22;2801;50.972;7.856;2023-04-25T02:47:29;4.00;99.90
5556;DHT22;2801;50.972;7.856;2023-04-25T02:49:56;4.00;99.90
5556;DHT22;2801;50.972;7.856;2023-04-25T02:52:23;4.10;99.90
5556;DHT22;2801;50.972;7.856;2023-04-25T02:54:51;4.10;99.90
5556;DHT22;2801;50.972;7.856;2023-04-25T02:57:18;4.20;99.90
5556;DHT22;2801;50.972;7.856;2023-04-25T02:59:45;4.20;99.90
5556;DHT22;2801;50.972;7.856;2023-04-25T03:02:12;4.20;99.90
5556;DHT22;2801;50.972;7.856;2023-04-25T03:04:39;4.20;99.90
5556;DHT22;2801;50.972;7.856;2023-04-25T03:07:06;4.20;99.90
5556;DHT22;2801;50.972;7.856;2023-04-25T03:09:33;4.30;99.90
5556;DHT22;2801;50.972;7.856;2023-04-25T03:12:01;4.30;99.90
5556;DHT22;2801;50.972;7.856;2023-04-25T03:14:28;4.30;99.90
5556;DHT22;2801;50.972;7.856;2023-04-25T03:16:54;4.30;99.90
5556;DHT22;2801;50.972;7.856;2023-04-25T03:19:22;4.30;99.90
5556;DHT22;2801;50.972;7.856;2023-04-25T03:21:49;4.30;99.90
5556;DHT22;2801;50.972;7.856;2023-04-25T03:24:16;4.30;99.90
5556;DHT22;2801;50.972;7.856;2023-04-25T03:26:43;4.30;99.90
5556;DHT22;2801;50.972;7.856;2023-04-25T03:29:10;4.30;99.90
5556;DHT22;2801;50.972;7.856;2023-04-25T03:31:37;4.30;99.90
5556;DHT22;2801;50.972;7.856;2023-04-25T03:34:04;4.30;99.90
5556;DHT22;2801;50.972;7.856;2023-04-25T03:36:31;4.30;99.90
5556;DHT22;2801;50.972;7.856;2023-04-25T03:38:59;4.30;99.90
5556;DHT22;2801;50.972;7.856;2023-04-25T03:41:26;4.30;99.90
5556;DHT22;2801;50.972;7.856;2023-04-25T03:43:54;4.20;99.90
5556;DHT22;2801;50.972;7.856;2023-04-25T03:46:21;4.10;99.90
5556;DHT22;2801;50.972;7.856;2023-04-25T03:48:48;4.00;99.90
5556;DHT22;2801;50.972;7.856;2023-04-25T03:51:15;3.90;99.90
5556;DHT22;2801;50.972;7.856;2023-04-25T03:53:42;3.80;99.90
5556;DHT22;2801;50.972;7.856;2023-04-25T03:56:09;3.70;99.90
5556;DHT22;2801;50.972;7.856;2023-04-25T03:58:36;3.60;99.90
5556;DHT22;2801;50.972;7.856;2023-04-25T04:01:03;3.50;99.90
5556;DHT22;2801;50.972;7.856;2023-04-25T04:03:34;3.50;99.90
5556;DHT22;2801;50.972;7.856;2023-04-25T04:06:04;3.50;99.90
5556;DHT22;2801;50.972;7.856;2023-04-25T04:08:32;3.40;99.90
5556;DHT22;2801;50.972;7.856;2023-04-25T04:11:00;3.40;99.90
5556;DHT22;2801;50.972;7.856;2023-04-25T04:13:27;3.40;99.90
5556;DHT22;2801;50.972;7.856;2023-04-25T04:15:55;3.50;99.90
5556;DHT22;2801;50.972;7.856;2023-04-25T04:18:22;3.50;99.90
5556;DHT22;2801;50.972;7.856;2023-04-25T04:20:50;3.50;99.90
5556;DHT22;2801;50.972;7.856;2023-04-25T04:23:17;3.50;99.90
5556;DHT22;2801;50.972;7.856;2023-04-25T04:25:45;3.50;99.90
5556;DHT22;2801;50.972;7.856;2023-04-25T04:28:13;3.60;99.90
5556;DHT22;2801;50.972;7.856;2023-04-25T04:30:40;3.70;99.90
5556;DHT22;2801;50.972;7.856;2023-04-25T04:33:08;3.70;99.90
5556;DHT22;2801;50.972;7.856;2023-04-25T04:35:35;3.80;99.90
5556;DHT22;2801;50.972;7.856;2023-04-25T04:38:02;3.80;99.90
5556;DHT22;2801;50.972;7.856;2023-04-25T04:40:29;3.70;99.90
5556;DHT22;2801;50.972;7.856;2023-04-25T04:42:57;3.80;99.90
5556;DHT22;2801;50.972;7.856;2023-04-25T04:45:24;3.90;99.90
5556;DHT22;2801;50.972;7.856;2023-04-25T04:47:51;4.00;99.90
5556;DHT22;2801;50.972;7.856;2023-04-25T04:50:18;4.10;99.90
5556;DHT22;2801;50.972;7.856;2023-04-25T04:52:46;4.30;99.90
5556;DHT22;2801;50.972;7.856;2023-04-25T04:55:13;4.20;99.90
5556;DHT22;2801;50.972;7.856;2023-04-25T04:57:40;4.30;99.90
5556;DHT22;2801;50.972;7.856;2023-04-25T05:00:07;4.40;99.90
5556;DHT22;2801;50.972;7.856;2023-04-25T05:02:38;4.50;99.90
5556;DHT22;2801;50.972;7.856;2023-04-25T05:05:06;4.60;99.90
5556;DHT22;2801;50.972;7.856;2023-04-25T05:07:34;4.60;99.90
5556;DHT22;2801;50.972;7.856;2023-04-25T05:10:01;4.80;99.90
5556;DHT22;2801;50.972;7.856;2023-04-25T05:12:29;5.00;99.90
5556;DHT22;2801;50.972;7.856;2023-04-25T05:14:56;5.20;99.90
5556;DHT22;2801;50.972;7.856;2023-04-25T05:17:23;5.20;99.90
5556;DHT22;2801;50.972;7.856;2023-04-25T05:19:50;5.30;99.90
5556;DHT22;2801;50.972;7.856;2023-04-25T05:22:17;5.40;99.90
5556;DHT22;2801;50.972;7.856;2023-04-25T05:24:44;5.50;99.90
5556;DHT22;2801;50.972;7.856;2023-04-25T05:27:11;5.80;99.90
5556;DHT22;2801;50.972;7.856;2023-04-25T05:29:38;6.30;99.90
5556;DHT22;2801;50.972;7.856;2023-04-25T05:32:05;6.90;99.90
5556;DHT22;2801;50.972;7.856;2023-04-25T05:34:32;7.20;99.90
5556;DHT22;2801;50.972;7.856;2023-04-25T05:36:59;7.70;99.90
5556;DHT22;2801;50.972;7.856;2023-04-25T05:39:26;7.70;99.90
5556;DHT22;2801;50.972;7.856;2023-04-25T05:41:54;8.00;99.90
5556;DHT22;2801;50.972;7.856;2023-04-25T05:44:21;8.70;99.90
5556;DHT22;2801;50.972;7.856;2023-04-25T05:46:48;9.00;99.90
5556;DHT22;2801;50.972;7.856;2023-04-25T05:49:15;9.10;99.90
5556;DHT22;2801;50.972;7.856;2023-04-25T05:51:45;8.80;99.90
5556;DHT22;2801;50.972;7.856;2023-04-25T05:54:12;8.70;99.90
5556;DHT22;2801;50.972;7.856;2023-04-25T05:56:39;9.00;99.90
5556;DHT22;2801;50.972;7.856;2023-04-25T05:59:05;9.40;99.90
5556;DHT22;2801;50.972;7.856;2023-04-25T06:01:32;9.60;99.90
5556;DHT22;2801;50.972;7.856;2023-04-25T06:03:59;9.40;99.90
5556;DHT22;2801;50.972;7.856;2023-04-25T06:06:27;9.10;99.90
5556;DHT22;2801;50.972;7.856;2023-04-25T06:08:54;8.70;99.90
5556;DHT22;2801;50.972;7.856;2023-04-25T06:11:22;8.40;99.90
5556;DHT22;2801;50.972;7.856;2023-04-25T06:13:49;8.20;99.90
5556;DHT22;2801;50.972;7.856;2023-04-25T06:16:16;8.00;99.90
5556;DHT22;2801;50.972;7.856;2023-04-25T06:18:43;7.80;99.90
5556;DHT22;2801;50.972;7.856;2023-04-25T06:21:10;7.50;99.90
5556;DHT22;2801;50.972;7.856;2023-04-25T06:23:37;7.10;99.90
5556;DHT22;2801;50.972;7.856;2023-04-25T06:26:04;6.90;99.90
5556;DHT22;2801;50.972;7.856;2023-04-25T06:28:31;6.70;99.90
5556;DHT22;2801;50.972;7.856;2023-04-25T06:30:58;6.60;99.90
5556;DHT22;2801;50.972;7.856;2023-04-25T06:33:25;6.40;99.90
5556;DHT22;2801;50.972;7.856;2023-04-25T06:35:53;6.30;99.90
5556;DHT22;2801;50.972;7.856;2023-04-25T06:38:20;6.40;99.90
5556;DHT22;2801;50.972;7.856;2023-04-25T06:40:47;6.40;99.90
5556;DHT22;2801;50.972;7.856;2023-04-25T06:43:14;6.40;99.90
5556;DHT22;2801;50.972;7.856;2023-04-25T06:45:41;6.40;99.90
5556;DHT22;2801;50.972;7.856;2023-04-25T06:48:09;6.20;99.90
5556;DHT22;2801;50.972;7.856;2023-04-25T06:50:36;6.10;99.90
5556;DHT22;2801;50.972;7.856;2023-04-25T06:53:04;6.00;99.90
5556;DHT22;2801;50.972;7.856;2023-04-25T06:55:30;5.70;99.90
5556;DHT22;2801;50.972;7.856;2023-04-25T06:57:57;5.50;99.90
5556;DHT22;2801;50.972;7.856;2023-04-25T07:00:24;5.30;99.90
5556;DHT22;2801;50.972;7.856;2023-04-25T07:02:51;5.20;99.90
5556;DHT22;2801;50.972;7.856;2023-04-25T07:05:18;5.20;99.90
5556;DHT22;2801;50.972;7.856;2023-04-25T07:07:45;5.10;99.90
5556;DHT22;2801;50.972;7.856;2023-04-25T07:10:12;5.00;99.90
5556;DHT22;2801;50.972;7.856;2023-04-25T07:12:39;5.00;99.90
5556;DHT22;2801;50.972;7.856;2023-04-25T07:15:06;5.00;99.90
5556;DHT22;2801;50.972;7.856;2023-04-25T07:17:36;5.10;99.90
5556;DHT22;2801;50.972;7.856;2023-04-25T07:20:04;5.20;99.90
5556;DHT22;2801;50.972;7.856;2023-04-25T07:22:32;5.20;99.90
5556;DHT22;2801;50.972;7.856;2023-04-25T07:24:59;5.20;99.90
5556;DHT22;2801;50.972;7.856;2023-04-25T07:27:26;5.30;99.90
5556;DHT22;2801;50.972;7.856;2023-04-25T07:29:53;5.50;99.90
5556;DHT22;2801;50.972;7.856;2023-04-25T07:32:20;5.80;99.90
5556;DHT22;2801;50.972;7.856;2023-04-25T07:34:47;6.00;99.90
5556;DHT22;2801;50.972;7.856;2023-04-25T07:37:14;6.40;99.90
5556;DHT22;2801;50.972;7.856;2023-04-25T07:39:41;6.70;99.90
5556;DHT22;2801;50.972;7.856;2023-04-25T07:42:08;7.30;99.90
5556;DHT22;2801;50.972;7.856;2023-04-25T07:44:35;8.20;99.90
5556;DHT22;2801;50.972;7.856;2023-04-25T07:47:05;9.10;99.90
5556;DHT22;2801;50.972;7.856;2023-04-25T07:49:36;10.30;99.90
5556;DHT22;2801;50.972;7.856;2023-04-25T07:52:04;11.60;99.90
5556;DHT22;2801;50.972;7.856;2023-04-25T07:54:35;12.40;99.90
5556;DHT22;2801;50.972;7.856;2023-04-25T07:57:02;13.00;99.90
5556;DHT22;2801;50.972;7.856;2023-04-25T07:59:29;13.20;99.90
5556;DHT22;2801;50.972;7.856;2023-04-25T08:01:56;13.60;99.90
5556;DHT22;2801;50.972;7.856;2023-04-25T08:04:24;13.80;99.90
5556;DHT22;2801;50.972;7.856;2023-04-25T08:06:52;14.20;99.90
5556;DHT22;2801;50.972;7.856;2023-04-25T08:09:20;14.30;99.90
5556;DHT22;2801;50.972;7.856;2023-04-25T08:11:48;13.90;99.90
5556;DHT22;2801;50.972;7.856;2023-04-25T08:14:15;13.80;99.90
5556;DHT22;2801;50.972;7.856;2023-04-25T08:16:41;13.40;99.90
5556;DHT22;2801;50.972;7.856;2023-04-25T08:19:09;12.50;99.00
5556;DHT22;2801;50.972;7.856;2023-04-25T08:21:37;11.90;99.90
5556;DHT22;2801;50.972;7.856;2023-04-25T08:24:04;11.50;99.90
5556;DHT22;2801;50.972;7.856;2023-04-25T08:26:31;11.00;99.90
5556;DHT22;2801;50.972;7.856;2023-04-25T08:28:59;10.60;99.90
5556;DHT22;2801;50.972;7.856;2023-04-25T08:31:26;10.20;99.90
5556;DHT22;2801;50.972;7.856;2023-04-25T08:33:53;9.80;99.90
5556;DHT22;2801;50.972;7.856;2023-04-25T08:36:21;9.30;99.90
5556;DHT22;2801;50.972;7.856;2023-04-25T08:39:04;9.00;99.90
5556;DHT22;2801;50.972;7.856;2023-04-25T08:41:32;8.80;99.90
5556;DHT22;2801;50.972;7.856;2023-04-25T08:43:59;8.80;99.90
5556;DHT22;2801;50.972;7.856;2023-04-25T08:46:28;8.80;99.90
5556;DHT22;2801;50.972;7.856;2023-04-25T08:49:01;9.00;99.90
5556;DHT22;2801;50.972;7.856;2023-04-25T08:51:31;9.10;99.90
5556;DHT22;2801;50.972;7.856;2023-04-25T08:54:17;9.00;99.90
5556;DHT22;2801;50.972;7.856;2023-04-25T08:57:02;9.00;99.90
5556;DHT22;2801;50.972;7.856;2023-04-25T08:59:31;9.00;99.90
5556;DHT22;2801;50.972;7.856;2023-04-25T09:02:01;9.00;99.90
5556;DHT22;2801;50.972;7.856;2023-04-25T09:04:30;9.00;99.90
5556;DHT22;2801;50.972;7.856;2023-04-25T09:06:58;9.00;99.90
5556;DHT22;2801;50.972;7.856;2023-04-25T09:09:25;8.90;99.90
5556;DHT22;2801;50.972;7.856;2023-04-25T09:11:54;8.90;99.90
5556;DHT22;2801;50.972;7.856;2023-04-25T09:14:22;8.90;99.90
5556;DHT22;2801;50.972;7.856;2023-04-25T09:19:40;8.70;99.90
5556;DHT22;2801;50.972;7.856;2023-04-25T09:22:24;8.50;99.90
5556;DHT22;2801;50.972;7.856;2023-04-25T09:24:51;8.30;99.90
5556;DHT22;2801;50.972;7.856;2023-04-25T09:27:20;8.10;99.90
5556;DHT22;2801;50.972;7.856;2023-04-25T09:29:59;8.10;99.90
5556;DHT22;2801;50.972;7.856;2023-04-25T09:32:27;7.90;99.90
5556;DHT22;2801;50.972;7.856;2023-04-25T09:34:56;7.90;99.90
5556;DHT22;2801;50.972;7.856;2023-04-25T09:37:41;7.80;99.90
5556;DHT22;2801;50.972;7.856;2023-04-25T09:40:09;7.80;99.90
5556;DHT22;2801;50.972;7.856;2023-04-25T09:42:54;7.90;99.90
5556;DHT22;2801;50.972;7.856;2023-04-25T09:45:21;8.00;99.90
5556;DHT22;2801;50.972;7.856;2023-04-25T09:47:49;8.20;99.90
5556;DHT22;2801;50.972;7.856;2023-04-25T09:50:17;8.50;99.90
5556;DHT22;2801;50.972;7.856;2023-04-25T09:52:45;8.70;99.90
5556;DHT22;2801;50.972;7.856;2023-04-25T09:55:29;8.90;99.90
5556;DHT22;2801;50.972;7.856;2023-04-25T09:58:03;9.20;99.90
5556;DHT22;2801;50.972;7.856;2023-04-25T10:00:33;9.60;99.90
5556;DHT22;2801;50.972;7.856;2023-04-25T10:03:01;10.10;99.90
5556;DHT22;2801;50.972;7.856;2023-04-25T10:05:32;10.60;99.90
5556;DHT22;2801;50.972;7.856;2023-04-25T10:08:02;10.70;99.20
5556;DHT22;2801;50.972;7.856;2023-04-25T10:10:33;10.70;97.10
5556;DHT22;2801;50.972;7.856;2023-04-25T10:13:04;10.30;97.50
5556;DHT22;2801;50.972;7.856;2023-04-25T10:15:35;10.20;99.00
5556;DHT22;2801;50.972;7.856;2023-04-25T10:18:06;10.20;99.80
5556;DHT22;2801;50.972;7.856;2023-04-25T10:20:52;10.30;99.40
5556;DHT22;2801;50.972;7.856;2023-04-25T10:23:40;10.80;99.90
5556;DHT22;2801;50.972;7.856;2023-04-25T10:26:08;12.50;99.70
5556;DHT22;2801;50.972;7.856;2023-04-25T10:29:03;13.70;99.00
5556;DHT22;2801;50.972;7.856;2023-04-25T10:31:31;13.70;96.90
5556;DHT22;2801;50.972;7.856;2023-04-25T10:34:00;13.20;96.20
5556;DHT22;2801;50.972;7.856;2023-04-25T10:36:31;12.60;96.80
5556;DHT22;2801;50.972;7.856;2023-04-25T10:39:04;11.90;97.30
5556;DHT22;2801;50.972;7.856;2023-04-25T10:41:57;11.50;96.50
5556;DHT22;2801;50.972;7.856;2023-04-25T10:44:31;11.20;93.30
5556;DHT22;2801;50.972;7.856;2023-04-25T10:47:00;10.90;94.80
5556;DHT22;2801;50.972;7.856;2023-04-25T10:49:42;11.10;96.40
5556;DHT22;2801;50.972;7.856;2023-04-25T10:52:13;11.20;95.20
5556;DHT22;2801;50.972;7.856;2023-04-25T10:54:46;11.60;96.20
5556;DHT22;2801;50.972;7.856;2023-04-25T10:57:27;11.60;95.20
5556;DHT22;2801;50.972;7.856;2023-04-25T11:00:20;11.40;95.00
5556;DHT22;2801;50.972;7.856;2023-04-25T11:02:59;11.50;96.50
5556;DHT22;2801;50.972;7.856;2023-04-25T11:08:21;11.50;95.90
5556;DHT22;2801;50.972;7.856;2023-04-25T11:11:01;12.20;94.70
5556;DHT22;2801;50.972;7.856;2023-04-25T11:13:29;12.10;93.40
5556;DHT22;2801;50.972;7.856;2023-04-25T11:15:57;11.70;92.80
5556;DHT22;2801;50.972;7.856;2023-04-25T11:18:41;11.20;94.10
5556;DHT22;2801;50.972;7.856;2023-04-25T11:21:09;10.60;94.40
5556;DHT22;2801;50.972;7.856;2023-04-25T11:23:36;10.20;95.80
5556;DHT22;2801;50.972;7.856;2023-04-25T11:26:04;9.70;95.20
5556;DHT22;2801;50.972;7.856;2023-04-25T11:28:30;9.20;94.60
5556;DHT22;2801;50.972;7.856;2023-04-25T11:30:58;8.90;94.90
5556;DHT22;2801;50.972;7.856;2023-04-25T11:33:26;8.80;95.40
5556;DHT22;2801;50.972;7.856;2023-04-25T11:35:55;8.80;95.70
5556;DHT22;2801;50.972;7.856;2023-04-25T11:38:24;9.10;97.00
5556;DHT22;2801;50.972;7.856;2023-04-25T11:40:54;9.50;96.50
5556;DHT22;2801;50.972;7.856;2023-04-25T11:43:22;9.80;95.40
5556;DHT22;2801;50.972;7.856;2023-04-25T11:45:50;10.00;94.50
5556;DHT22;2801;50.972;7.856;2023-04-25T11:48:20;10.50;93.70
5556;DHT22;2801;50.972;7.856;2023-04-25T11:50:53;10.80;93.60
5556;DHT22;2801;50.972;7.856;2023-04-25T11:53:20;10.90;93.70
5556;DHT22;2801;50.972;7.856;2023-04-25T11:55:47;11.00;94.80
5556;DHT22;2801;50.972;7.856;2023-04-25T11:58:14;11.00;94.70
5556;DHT22;2801;50.972;7.856;2023-04-25T12:00:42;11.00;92.70
5556;DHT22;2801;50.972;7.856;2023-04-25T12:03:17;11.20;94.30
5556;DHT22;2801;50.972;7.856;2023-04-25T12:05:46;11.40;91.80
5556;DHT22;2801;50.972;7.856;2023-04-25T12:08:15;11.50;91.90
5556;DHT22;2801;50.972;7.856;2023-04-25T12:10:44;11.40;91.70
5556;DHT22;2801;50.972;7.856;2023-04-25T12:13:24;11.00;90.00
5556;DHT22;2801;50.972;7.856;2023-04-25T12:15:54;10.70;87.50
5556;DHT22;2801;50.972;7.856;2023-04-25T12:18:26;10.40;86.50
5556;DHT22;2801;50.972;7.856;2023-04-25T12:20:55;10.30;89.60
5556;DHT22;2801;50.972;7.856;2023-04-25T12:23:27;10.40;90.90
5556;DHT22;2801;50.972;7.856;2023-04-25T12:25:55;10.40;87.10
5556;DHT22;2801;50.972;7.856;2023-04-25T12:28:24;10.40;88.10
5556;DHT22;2801;50.972;7.856;2023-04-25T12:31:03;10.50;89.90
5556;DHT22;2801;50.972;7.856;2023-04-25T12:33:36;10.70;90.70
5556;DHT22;2801;50.972;7.856;2023-04-25T12:36:05;10.80;87.30
5556;DHT22;2801;50.972;7.856;2023-04-25T12:38:39;10.70;89.90
5556;DHT22;2801;50.972;7.856;2023-04-25T12:41:09;10.60;89.50
5556;DHT22;2801;50.972;7.856;2023-04-25T12:43:36;10.60;90.50
5556;DHT22;2801;50.972;7.856;2023-04-25T12:46:03;10.80;90.10
5556;DHT22;2801;50.972;7.856;2023-04-25T12:48:30;11.10;90.90
5556;DHT22;2801;50.972;7.856;2023-04-25T12:50:57;11.20;89.80
5556;DHT22;2801;50.972;7.856;2023-04-25T12:53:25;11.30;89.80
5556;DHT22;2801;50.972;7.856;2023-04-25T12:55:52;11.30;89.00
5556;DHT22;2801;50.972;7.856;2023-04-25T12:58:19;11.10;88.70
5556;DHT22;2801;50.972;7.856;2023-04-25T13:00:46;10.70;89.50
5556;DHT22;2801;50.972;7.856;2023-04-25T13:03:14;10.40;90.00
5556;DHT22;2801;50.972;7.856;2023-04-25T13:05:42;10.10;90.90
5556;DHT22;2801;50.972;7.856;2023-04-25T13:08:09;9.70;91.60
5556;DHT22;2801;50.972;7.856;2023-04-25T13:10:36;9.60;91.90
5556;DHT22;2801;50.972;7.856;2023-04-25T13:13:05;9.60;92.40
5556;DHT22;2801;50.972;7.856;2023-04-25T13:15:32;9.70;92.90
5556;DHT22;2801;50.972;7.856;2023-04-25T13:17:59;9.80;91.90
5556;DHT22;2801;50.972;7.856;2023-04-25T13:20:26;9.90;92.20
5556;DHT22;2801;50.972;7.856;2023-04-25T13:22:53;10.00;91.70
5556;DHT22;2801;50.972;7.856;2023-04-25T13:25:20;10.20;92.60
5556;DHT22;2801;50.972;7.856;2023-04-25T13:27:48;10.20;92.50
5556;DHT22;2801;50.972;7.856;2023-04-25T13:30:15;10.20;92.60
5556;DHT22;2801;50.972;7.856;2023-04-25T13:32:42;10.40;92.00
5556;DHT22;2801;50.972;7.856;2023-04-25T13:35:12;10.50;92.30
5556;DHT22;2801;50.972;7.856;2023-04-25T13:37:40;10.50;92.20
5556;DHT22;2801;50.972;7.856;2023-04-25T13:40:09;10.40;91.60
5556;DHT22;2801;50.972;7.856;2023-04-25T13:42:38;10.40;92.50
5556;DHT22;2801;50.972;7.856;2023-04-25T13:45:06;10.30;92.20
5556;DHT22;2801;50.972;7.856;2023-04-25T13:47:34;10.50;92.80
5556;DHT22;2801;50.972;7.856;2023-04-25T13:50:01;10.70;92.60
5556;DHT22;2801;50.972;7.856;2023-04-25T13:52:30;10.70;91.40
5556;DHT22;2801;50.972;7.856;2023-04-25T13:54:57;10.70;91.40
5556;DHT22;2801;50.972;7.856;2023-04-25T13:57:24;10.60;90.10
5556;DHT22;2801;50.972;7.856;2023-04-25T13:59:52;10.60;90.50
5556;DHT22;2801;50.972;7.856;2023-04-25T14:02:20;10.60;91.10
5556;DHT22;2801;50.972;7.856;2023-04-25T14:04:47;10.50;90.90
5556;DHT22;2801;50.972;7.856;2023-04-25T14:07:14;10.40;90.90
5556;DHT22;2801;50.972;7.856;2023-04-25T14:09:45;10.20;91.10
5556;DHT22;2801;50.972;7.856;2023-04-25T14:12:12;10.00;91.10
5556;DHT22;2801;50.972;7.856;2023-04-25T14:14:39;9.70;91.80
5556;DHT22;2801;50.972;7.856;2023-04-25T14:17:06;9.70;93.60
5556;DHT22;2801;50.972;7.856;2023-04-25T14:19:34;9.50;93.90
5556;DHT22;2801;50.972;7.856;2023-04-25T14:22:02;9.40;93.70
5556;DHT22;2801;50.972;7.856;2023-04-25T14:24:29;9.50;93.60
5556;DHT22;2801;50.972;7.856;2023-04-25T14:26:56;9.50;92.90
5556;DHT22;2801;50.972;7.856;2023-04-25T14:29:23;9.30;92.70
5556;DHT22;2801;50.972;7.856;2023-04-25T14:31:49;9.20;93.40
5556;DHT22;2801;50.972;7.856;2023-04-25T14:34:17;9.00;94.00
5556;DHT22;2801;50.972;7.856;2023-04-25T14:36:43;9.00;94.20
5556;DHT22;2801;50.972;7.856;2023-04-25T14:39:12;8.90;94.50
5556;DHT22;2801;50.972;7.856;2023-04-25T14:41:40;9.00;94.20
5556;DHT22;2801;50.972;7.856;2023-04-25T14:44:07;9.10;94.10
5556;DHT22;2801;50.972;7.856;2023-04-25T14:46:34;9.20;94.20
5556;DHT22;2801;50.972;7.856;2023-04-25T14:49:03;9.30;93.20
5556;DHT22;2801;50.972;7.856;2023-04-25T14:51:30;9.30;94.20
5556;DHT22;2801;50.972;7.856;2023-04-25T14:53:57;9.40;94.70
5556;DHT22;2801;50.972;7.856;2023-04-25T14:56:24;9.80;94.50
5556;DHT22;2801;50.972;7.856;2023-04-25T14:58:52;9.70;94.10
5556;DHT22;2801;50.972;7.856;2023-04-25T15:01:19;10.00;94.40
5556;DHT22;2801;50.972;7.856;2023-04-25T15:03:47;10.20;93.90
5556;DHT22;2801;50.972;7.856;2023-04-25T15:06:15;10.40;94.60
5556;DHT22;2801;50.972;7.856;2023-04-25T15:08:42;10.60;94.80
5556;DHT22;2801;50.972;7.856;2023-04-25T15:11:09;10.80;94.40
5556;DHT22;2801;50.972;7.856;2023-04-25T15:13:37;10.90;94.00
5556;DHT22;2801;50.972;7.856;2023-04-25T15:16:04;11.00;93.70
5556;DHT22;2801;50.972;7.856;2023-04-25T15:18:32;11.20;94.70
5556;DHT22;2801;50.972;7.856;2023-04-25T15:20:59;11.30;91.60
5556;DHT22;2801;50.972;7.856;2023-04-25T15:23:26;11.40;93.30
5556;DHT22;2801;50.972;7.856;2023-04-25T15:25:55;11.40;92.80
5556;DHT22;2801;50.972;7.856;2023-04-25T15:28:22;11.40;92.50
5556;DHT22;2801;50.972;7.856;2023-04-25T15:30:49;11.30;92.40
5556;DHT22;2801;50.972;7.856;2023-04-25T15:33:17;11.30;91.60
5556;DHT22;2801;50.972;7.856;2023-04-25T15:36:18;11.50;91.50
5556;DHT22;2801;50.972;7.856;2023-04-25T15:39:08;11.50;90.50
5556;DHT22;2801;50.972;7.856;2023-04-25T15:41:36;11.10;91.60
5556;DHT22;2801;50.972;7.856;2023-04-25T15:44:03;10.70;91.70
5556;DHT22;2801;50.972;7.856;2023-04-25T15:46:30;10.20;92.20
5556;DHT22;2801;50.972;7.856;2023-04-25T15:48:58;9.90;93.20
5556;DHT22;2801;50.972;7.856;2023-04-25T15:51:24;9.70;93.50
5556;DHT22;2801;50.972;7.856;2023-04-25T15:53:52;9.60;94.10
5556;DHT22;2801;50.972;7.856;2023-04-25T15:56:20;9.60;93.60
5556;DHT22;2801;50.972;7.856;2023-04-25T15:58:47;9.50;94.00
5556;DHT22;2801;50.972;7.856;2023-04-25T16:01:14;9.50;94.70
5556;DHT22;2801;50.972;7.856;2023-04-25T16:03:42;9.30;92.30
5556;DHT22;2801;50.972;7.856;2023-04-25T16:06:09;9.20;91.80
5556;DHT22;2801;50.972;7.856;2023-04-25T16:08:36;9.00;91.60
5556;DHT22;2801;50.972;7.856;2023-04-25T16:11:03;8.90;92.30
5556;DHT22;2801;50.972;7.856;2023-04-25T16:13:31;8.80;92.80
5556;DHT22;2801;50.972;7.856;2023-04-25T16:15:59;8.70;93.20
5556;DHT22;2801;50.972;7.856;2023-04-25T16:18:27;8.80;93.70
5556;DHT22;2801;50.972;7.856;2023-04-25T16:20:54;8.80;93.80
5556;DHT22;2801;50.972;7.856;2023-04-25T16:23:21;8.90;94.20
5556;DHT22;2801;50.972;7.856;2023-04-25T16:25:48;9.00;94.30
5556;DHT22;2801;50.972;7.856;2023-04-25T16:28:16;9.00;94.30